createdAt,value
2023-03-06T00:00:45.384Z,92.67
2023-03-06T00:03:12.511Z,93.21
2023-03-06T00:05:39.991Z,92.94
2023-03-06T00:08:07.019Z,92.16
2023-03-06T00:10:34.229Z,92.49
2023-03-06T00:13:05.688Z,93.39
2023-03-06T00:15:32.923Z,94.82
2023-03-06T00:18:03.924Z,95.35
2023-03-06T00:20:31.001Z,96.29
2023-03-06T00:22:58.812Z,95.99
2023-03-06T00:25:26.593Z,96.34
2023-03-06T00:27:53.524Z,96.72
2023-03-06T00:30:26.092Z,96.91
2023-03-06T00:32:53.924Z,97.13
2023-03-06T00:35:21.169Z,97.43
2023-03-06T00:37:48.162Z,97.14
2023-03-06T00:40:19.182Z,96.58
2023-03-06T00:42:47.267Z,96.96
2023-03-06T00:45:14.493Z,97.76
2023-03-06T00:47:41.980Z,98.82
2023-03-06T00:50:10.044Z,99.41
2023-03-06T00:52:37.261Z,99.99
2023-03-06T00:55:05.866Z,100.00
2023-03-06T00:57:32.694Z,100.00
2023-03-06T00:59:59.553Z,99.70
2023-03-06T01:02:26.478Z,99.46
2023-03-06T01:04:53.440Z,99.53
2023-03-06T01:07:20.349Z,99.11
2023-03-06T01:09:47.222Z,99.67
2023-03-06T01:12:14.291Z,100.00
2023-03-06T01:14:41.202Z,99.82
2023-03-06T01:17:08.090Z,99.93
2023-03-06T01:19:34.857Z,99.87
2023-03-06T01:22:01.608Z,99.91
2023-03-06T01:24:28.665Z,99.79
2023-03-06T01:26:56.096Z,99.71
2023-03-06T01:29:22.921Z,99.06
2023-03-06T01:31:53.532Z,99.15
2023-03-06T01:34:20.786Z,98.80
2023-03-06T01:36:48.292Z,99.14
2023-03-06T01:39:15.468Z,98.88
2023-03-06T01:41:42.186Z,98.82
2023-03-06T01:44:13.574Z,98.58
2023-03-06T01:46:43.484Z,98.30
2023-03-06T01:49:16.582Z,98.78
2023-03-06T01:51:52.096Z,98.53
2023-03-06T01:54:27.025Z,98.42
2023-03-06T01:57:03.536Z,98.74
2023-03-06T01:59:34.667Z,98.55
2023-03-06T02:02:03.816Z,98.97
2023-03-06T02:04:32.592Z,99.17
2023-03-06T02:07:04.818Z,98.74
2023-03-06T02:09:34.143Z,98.99
2023-03-06T02:12:10.600Z,99.27
2023-03-06T02:14:39.792Z,99.00
2023-03-06T02:17:10.860Z,98.81
2023-03-06T02:19:49.594Z,98.50
2023-03-06T02:22:16.414Z,98.04
2023-03-06T02:24:54.241Z,97.96
2023-03-06T02:27:24.361Z,97.78
2023-03-06T02:29:51.322Z,97.91
2023-03-06T02:32:18.330Z,97.76
2023-03-06T02:34:51.976Z,97.14
2023-03-06T02:37:20.043Z,96.25
2023-03-06T02:39:54.593Z,96.62
2023-03-06T02:42:28.617Z,97.50
2023-03-06T02:44:59.298Z,97.84
2023-03-06T02:47:26.331Z,97.59
2023-03-06T02:49:53.222Z,97.37
2023-03-06T02:52:20.051Z,97.53
2023-03-06T02:54:46.786Z,97.06
2023-03-06T02:57:13.559Z,96.05
2023-03-06T02:59:40.374Z,96.46
2023-03-06T03:02:07.299Z,96.51
2023-03-06T03:04:34.827Z,96.46
2023-03-06T03:07:01.724Z,96.83
2023-03-06T03:09:28.782Z,96.28
2023-03-06T03:11:55.718Z,95.64
2023-03-06T03:14:24.990Z,96.51
2023-03-06T03:16:52.152Z,96.78
2023-03-06T03:19:19.090Z,96.78
2023-03-06T03:21:46.123Z,96.74
2023-03-06T03:24:13.249Z,97.03
2023-03-06T03:26:40.132Z,96.43
2023-03-06T03:29:07.251Z,96.15
2023-03-06T03:31:37.469Z,95.97
2023-03-06T03:34:04.362Z,95.72
2023-03-06T03:36:31.277Z,95.76
2023-03-06T03:38:58.170Z,95.16
2023-03-06T03:41:25.057Z,94.93
2023-03-06T03:43:52.151Z,94.98
2023-03-06T03:46:19.023Z,95.71
2023-03-06T03:48:45.843Z,95.68
2023-03-06T03:51:16.480Z,95.64
2023-03-06T03:53:44.928Z,96.55
2023-03-06T03:56:13.220Z,96.83
2023-03-06T03:58:39.965Z,96.70
2023-03-06T04:01:07.743Z,96.43
2023-03-06T04:03:34.686Z,96.91
2023-03-06T04:06:01.555Z,96.14
2023-03-06T04:08:29.005Z,96.15
2023-03-06T04:10:56.117Z,95.41
2023-03-06T04:13:23.693Z,95.82
2023-03-06T04:15:54.294Z,96.78
2023-03-06T04:18:23.183Z,96.69
2023-03-06T04:20:51.017Z,96.56
2023-03-06T04:23:19.364Z,95.75
2023-03-06T04:25:46.731Z,95.96
2023-03-06T04:28:13.963Z,96.07
2023-03-06T04:30:41.529Z,96.30
2023-03-06T04:33:09.163Z,95.97
2023-03-06T04:35:36.177Z,96.56
2023-03-06T04:38:03.779Z,96.69
2023-03-06T04:40:34.392Z,96.92
2023-03-06T04:43:03.087Z,96.83
2023-03-06T04:45:31.749Z,96.63
2023-03-06T04:47:59.134Z,96.34
2023-03-06T04:50:28.249Z,96.48
2023-03-06T04:52:55.224Z,96.37
2023-03-06T04:55:22.120Z,96.62
2023-03-06T04:57:49.185Z,96.87
2023-03-06T05:00:20.754Z,97.12
2023-03-06T05:02:49.108Z,97.52
2023-03-06T05:05:18.245Z,98.00
2023-03-06T05:07:46.274Z,97.88
2023-03-06T05:10:17.989Z,98.01
2023-03-06T05:12:45.240Z,97.98
2023-03-06T05:15:13.494Z,97.50
2023-03-06T05:17:40.636Z,97.29
2023-03-06T05:20:09.898Z,97.22
2023-03-06T05:22:37.061Z,96.40
2023-03-06T05:25:04.898Z,96.19
2023-03-06T05:27:31.944Z,95.72
2023-03-06T05:29:59.275Z,95.97
2023-03-06T05:32:28.907Z,95.56
2023-03-06T05:34:56.487Z,95.63
2023-03-06T05:37:23.657Z,95.70
2023-03-06T05:39:51.704Z,96.19
2023-03-06T05:42:18.571Z,96.27
2023-03-06T05:44:45.908Z,96.41
2023-03-06T05:47:13.274Z,96.58
2023-03-06T05:49:40.556Z,96.67
2023-03-06T05:52:08.881Z,96.82
2023-03-06T05:54:37.501Z,96.44
2023-03-06T05:57:05.970Z,96.66
2023-03-06T05:59:33.705Z,96.79
2023-03-06T06:02:01.916Z,97.21
2023-03-06T06:04:28.867Z,96.79
2023-03-06T06:06:59.728Z,97.02
2023-03-06T06:09:27.897Z,97.27
2023-03-06T06:11:59.548Z,97.30
2023-03-06T06:14:27.076Z,97.78
2023-03-06T06:16:54.791Z,97.49
2023-03-06T06:19:23.011Z,97.40
2023-03-06T06:21:54.213Z,95.74
2023-03-06T06:24:25.225Z,94.64
2023-03-06T06:26:57.676Z,92.10
2023-03-06T06:29:26.564Z,91.83
2023-03-06T06:31:53.881Z,91.46
2023-03-06T06:34:21.652Z,91.02
2023-03-06T06:36:53.239Z,90.20
2023-03-06T06:39:23.363Z,89.97
2023-03-06T06:42:05.550Z,89.52
2023-03-06T06:44:37.976Z,90.22
2023-03-06T06:47:24.095Z,89.44
2023-03-06T06:49:54.077Z,88.67
2023-03-06T06:52:21.775Z,88.74
2023-03-06T06:54:48.585Z,88.19
2023-03-06T06:57:16.511Z,88.03
2023-03-06T06:59:43.367Z,87.26
2023-03-06T07:02:15.690Z,86.14
2023-03-06T07:05:00.392Z,84.96
2023-03-06T07:07:34.145Z,84.58
2023-03-06T07:10:01.252Z,83.97
2023-03-06T07:12:28.081Z,83.58
2023-03-06T07:14:55.264Z,83.49
2023-03-06T07:17:22.208Z,82.97
2023-03-06T07:19:49.489Z,82.96
2023-03-06T07:22:16.543Z,83.08
2023-03-06T07:24:43.324Z,83.33
2023-03-06T07:27:10.741Z,83.74
2023-03-06T07:29:38.079Z,84.33
2023-03-06T07:32:05.175Z,84.41
2023-03-06T07:34:32.127Z,84.74
2023-03-06T07:36:59.001Z,85.18
2023-03-06T07:39:27.919Z,85.61
2023-03-06T07:41:54.672Z,86.01
2023-03-06T07:44:22.064Z,85.84
2023-03-06T07:46:50.488Z,86.63
2023-03-06T07:49:18.077Z,87.01
2023-03-06T07:51:45.197Z,87.33
2023-03-06T07:54:12.103Z,88.10
2023-03-06T07:56:38.998Z,88.12
2023-03-06T07:59:05.830Z,88.75
2023-03-06T08:01:33.100Z,89.93
2023-03-06T08:04:01.802Z,90.70
2023-03-06T08:06:28.689Z,92.29
2023-03-06T08:08:56.895Z,92.58
2023-03-06T08:11:28.643Z,93.48
2023-03-06T08:13:56.829Z,92.94
2023-03-06T08:16:28.736Z,93.56
2023-03-06T08:18:57.102Z,93.86
2023-03-06T08:21:27.703Z,94.38
2023-03-06T08:23:54.987Z,94.73
2023-03-06T08:26:29.103Z,95.16
2023-03-06T08:28:59.184Z,95.57
2023-03-06T08:31:38.035Z,95.82
2023-03-06T08:34:15.037Z,96.24
2023-03-06T08:36:42.374Z,96.12
2023-03-06T08:39:10.040Z,97.09
2023-03-06T08:41:37.750Z,96.69
2023-03-06T08:44:05.436Z,97.17
2023-03-06T08:46:34.140Z,97.95
2023-03-06T08:49:01.859Z,97.96
2023-03-06T08:51:29.128Z,97.91
2023-03-06T08:53:58.264Z,96.91
2023-03-06T08:56:29.872Z,96.56
2023-03-06T08:59:00.310Z,97.07
2023-03-06T09:01:31.635Z,97.34
2023-03-06T09:04:04.338Z,98.28
2023-03-06T09:06:35.846Z,98.11
2023-03-06T09:09:03.964Z,96.68
2023-03-06T09:11:31.493Z,95.70
2023-03-06T09:13:59.406Z,95.61
2023-03-06T09:16:26.993Z,95.81
2023-03-06T09:18:54.343Z,95.25
2023-03-06T09:21:26.174Z,94.87
2023-03-06T09:23:53.059Z,96.42
2023-03-06T09:26:20.331Z,95.50
2023-03-06T09:28:47.418Z,96.51
2023-03-06T09:31:18.686Z,94.79
2023-03-06T09:33:46.676Z,94.10
2023-03-06T09:36:21.286Z,94.25
2023-03-06T09:38:49.770Z,94.14
2023-03-06T09:41:40.584Z,93.43
2023-03-06T09:44:22.696Z,93.86
2023-03-06T09:47:14.772Z,92.86
2023-03-06T09:50:19.371Z,93.32
2023-03-06T09:53:04.830Z,92.70
2023-03-06T09:55:38.000Z,92.82
2023-03-06T09:58:22.039Z,91.17
2023-03-06T10:01:02.930Z,90.50
2023-03-06T10:03:57.612Z,90.73
2023-03-06T10:06:34.727Z,89.51
2023-03-06T10:09:24.385Z,90.17
2023-03-06T10:12:04.930Z,88.45
2023-03-06T10:14:43.042Z,87.84
2023-03-06T10:17:20.647Z,89.00
2023-03-06T10:19:47.954Z,87.00
2023-03-06T10:22:44.777Z,87.26
2023-03-06T10:25:49.883Z,87.30
2023-03-06T10:28:23.142Z,85.97
2023-03-06T10:31:26.784Z,86.00
2023-03-06T10:33:55.524Z,87.01
2023-03-06T10:36:27.473Z,86.12
2023-03-06T10:38:59.742Z,85.21
2023-03-06T10:41:35.618Z,84.95
2023-03-06T10:44:20.768Z,85.18
2023-03-06T10:46:52.246Z,84.89
2023-03-06T10:49:37.796Z,84.84
2023-03-06T10:52:13.762Z,85.05
2023-03-06T10:54:44.602Z,84.73
2023-03-06T10:57:31.624Z,84.38
2023-03-06T11:00:08.565Z,83.30
2023-03-06T11:02:41.036Z,82.54
2023-03-06T11:05:20.635Z,82.09
2023-03-06T11:08:00.171Z,80.00
2023-03-06T11:10:31.214Z,80.14
2023-03-06T11:13:24.126Z,77.76
2023-03-06T11:16:30.650Z,77.35
2023-03-06T11:19:12.380Z,77.07
2023-03-06T11:21:40.718Z,76.34
2023-03-06T11:24:20.273Z,76.76
2023-03-06T11:26:59.292Z,74.96
2023-03-06T11:29:46.746Z,74.83
2023-03-06T11:32:31.735Z,75.04
2023-03-06T11:35:02.653Z,74.77
2023-03-06T11:37:32.599Z,73.73
2023-03-06T11:40:12.023Z,73.44
2023-03-06T11:43:35.591Z,73.21
2023-03-06T11:46:28.562Z,73.93
2023-03-06T11:49:12.646Z,72.75
2023-03-06T11:51:53.051Z,72.54
2023-03-06T11:54:20.805Z,72.62
2023-03-06T11:56:59.680Z,71.60
2023-03-06T11:59:58.465Z,70.83
2023-03-06T12:02:43.514Z,70.89
2023-03-06T12:05:36.515Z,69.69
2023-03-06T12:08:27.971Z,68.80
2023-03-06T12:10:59.437Z,68.82
2023-03-06T12:14:03.944Z,67.57
2023-03-06T12:17:01.968Z,70.77
2023-03-06T12:20:19.707Z,67.85
2023-03-06T12:23:21.702Z,67.59
2023-03-06T12:26:00.606Z,67.76
2023-03-06T12:28:58.732Z,66.89
2023-03-06T12:31:49.947Z,66.28
2023-03-06T12:34:19.567Z,66.11
2023-03-06T12:37:00.640Z,66.67
2023-03-06T12:39:33.889Z,66.07
2023-03-06T12:42:25.487Z,66.66
2023-03-06T12:45:10.186Z,66.15
2023-03-06T12:47:46.406Z,65.86
2023-03-06T12:50:32.628Z,65.92
2023-03-06T12:53:14.982Z,66.10
2023-03-06T12:55:47.410Z,65.43
2023-03-06T12:58:48.890Z,65.52
2023-03-06T13:01:45.961Z,65.62
2023-03-06T13:04:41.250Z,65.82
2023-03-06T13:07:31.481Z,66.05
2023-03-06T13:10:01.178Z,65.23
2023-03-06T13:13:01.055Z,64.43
2023-03-06T13:15:41.070Z,64.76
2023-03-06T13:18:33.867Z,65.03
2023-03-06T13:21:01.549Z,65.44
2023-03-06T13:23:47.858Z,64.82
2023-03-06T13:26:26.898Z,64.38
2023-03-06T13:28:57.846Z,64.83
2023-03-06T13:31:45.193Z,64.81
2023-03-06T13:34:42.110Z,65.01
2023-03-06T13:37:22.905Z,65.50
2023-03-06T13:39:55.570Z,66.03
2023-03-06T13:42:36.751Z,65.34
2023-03-06T13:45:34.378Z,65.30
2023-03-06T13:48:37.539Z,65.85
2023-03-06T13:50:49.689Z,65.95
2023-03-06T13:53:42.874Z,65.99
2023-03-06T13:56:47.465Z,66.40
2023-03-06T13:59:57.040Z,66.23
2023-03-06T14:02:55.561Z,66.48
2023-03-06T14:05:22.977Z,66.70
2023-03-06T14:08:12.826Z,66.98
2023-03-06T14:10:40.476Z,66.63
2023-03-06T14:13:23.630Z,66.47
2023-03-06T14:15:55.430Z,66.41
2023-03-06T14:18:39.712Z,66.24
2023-03-06T14:21:13.532Z,66.93
2023-03-06T14:23:45.834Z,67.08
2023-03-06T14:26:23.695Z,67.49
2023-03-06T14:28:59.387Z,67.81
2023-03-06T14:31:36.312Z,68.02
2023-03-06T14:34:21.577Z,68.49
2023-03-06T14:36:59.990Z,68.82
2023-03-06T14:39:43.512Z,69.53
2023-03-06T14:42:25.765Z,69.67
2023-03-06T14:45:23.943Z,70.42
2023-03-06T14:47:53.105Z,70.97
2023-03-06T14:50:33.929Z,71.12
2023-03-06T14:53:15.801Z,72.28
2023-03-06T14:56:06.291Z,74.58
2023-03-06T14:58:55.062Z,76.53
2023-03-06T15:01:27.738Z,77.49
2023-03-06T15:04:00.328Z,78.30
2023-03-06T15:06:39.001Z,80.02
2023-03-06T15:09:20.790Z,81.10
2023-03-06T15:11:57.647Z,81.99
2023-03-06T15:14:35.522Z,82.77
2023-03-06T15:17:17.535Z,81.86
2023-03-06T15:19:51.630Z,81.75
2023-03-06T15:22:41.100Z,83.03
2023-03-06T15:25:26.980Z,82.41
2023-03-06T15:28:27.900Z,82.76
2023-03-06T15:31:28.397Z,82.32
2023-03-06T15:34:04.123Z,82.69
2023-03-06T15:36:35.101Z,82.20
2023-03-06T15:39:24.708Z,82.17
2023-03-06T15:42:00.176Z,81.30
2023-03-06T15:44:30.240Z,81.83
2023-03-06T15:47:07.720Z,81.12
2023-03-06T15:49:38.526Z,81.45
2023-03-06T15:52:09.487Z,81.26
2023-03-06T15:54:37.896Z,80.16
2023-03-06T15:57:11.791Z,78.81
2023-03-06T15:59:44.344Z,79.24
2023-03-06T16:02:17.385Z,79.92
2023-03-06T16:04:45.298Z,79.21
2023-03-06T16:07:13.371Z,78.72
2023-03-06T16:09:42.263Z,79.19
2023-03-06T16:12:17.409Z,79.59
2023-03-06T16:14:47.322Z,79.78
2023-03-06T16:17:15.178Z,79.26
2023-03-06T16:19:43.332Z,79.18
2023-03-06T16:22:10.709Z,79.30
2023-03-06T16:24:37.881Z,79.70
2023-03-06T16:27:05.194Z,79.22
2023-03-06T16:29:32.177Z,78.65
2023-03-06T16:32:01.605Z,78.73
2023-03-06T16:34:28.481Z,78.43
2023-03-06T16:36:55.356Z,78.12
2023-03-06T16:39:24.037Z,78.12
2023-03-06T16:41:52.219Z,77.69
2023-03-06T16:44:20.874Z,77.80
2023-03-06T16:46:50.057Z,77.82
2023-03-06T16:49:23.341Z,77.89
2023-03-06T16:51:51.630Z,78.58
2023-03-06T16:54:18.986Z,79.46
2023-03-06T16:56:46.276Z,80.42
2023-03-06T16:59:13.317Z,80.52
2023-03-06T17:01:44.959Z,81.32
2023-03-06T17:04:12.179Z,81.14
2023-03-06T17:06:39.834Z,81.25
2023-03-06T17:09:06.939Z,80.58
2023-03-06T17:11:38.364Z,78.93
2023-03-06T17:14:06.985Z,78.61
2023-03-06T17:16:34.139Z,77.97
2023-03-06T17:19:02.299Z,77.71
2023-03-06T17:21:30.216Z,77.30
2023-03-06T17:23:57.595Z,77.26
2023-03-06T17:26:24.529Z,77.33
2023-03-06T17:28:51.541Z,76.96
2023-03-06T17:31:27.076Z,76.46
2023-03-06T17:33:59.102Z,76.73
2023-03-06T17:36:35.330Z,76.47
2023-03-06T17:39:04.008Z,76.55
2023-03-06T17:41:33.074Z,76.99
2023-03-06T17:44:01.557Z,76.82
2023-03-06T17:46:28.604Z,76.66
2023-03-06T17:48:55.496Z,76.63
2023-03-06T17:51:23.625Z,76.73
2023-03-06T17:53:52.320Z,77.10
2023-03-06T17:56:19.968Z,77.36
2023-03-06T17:58:50.881Z,77.05
2023-03-06T18:01:24.008Z,77.37
2023-03-06T18:03:55.293Z,78.51
2023-03-06T18:06:27.800Z,78.88
2023-03-06T18:08:57.089Z,79.34
2023-03-06T18:11:27.824Z,80.00
2023-03-06T18:13:54.801Z,79.86
2023-03-06T18:16:25.820Z,80.06
2023-03-06T18:18:55.266Z,80.16
2023-03-06T18:21:24.519Z,80.27
2023-03-06T18:23:52.006Z,80.27
2023-03-06T18:26:29.478Z,80.35
2023-03-06T18:29:04.335Z,79.85
2023-03-06T18:31:36.145Z,79.01
2023-03-06T18:34:13.237Z,78.86
2023-03-06T18:36:43.660Z,78.95
2023-03-06T18:39:13.983Z,79.06
2023-03-06T18:41:42.640Z,79.50
2023-03-06T18:44:19.158Z,79.45
2023-03-06T18:46:46.391Z,79.22
2023-03-06T18:49:19.092Z,78.33
2023-03-06T18:51:48.465Z,78.19
2023-03-06T18:54:25.278Z,77.87
2023-03-06T18:56:52.511Z,77.96
2023-03-06T18:59:20.257Z,77.80
2023-03-06T19:01:57.306Z,77.72
2023-03-06T19:04:36.584Z,78.01
2023-03-06T19:07:05.122Z,77.85
2023-03-06T19:09:32.482Z,77.96
2023-03-06T19:12:03.176Z,77.50
2023-03-06T19:14:30.599Z,77.53
2023-03-06T19:17:00.736Z,77.67
2023-03-06T19:19:29.347Z,77.70
2023-03-06T19:22:00.595Z,77.90
2023-03-06T19:24:30.740Z,77.52
2023-03-06T19:26:57.862Z,77.31
2023-03-06T19:29:25.737Z,77.34
2023-03-06T19:31:53.202Z,77.00
2023-03-06T19:34:23.279Z,76.59
2023-03-06T19:36:54.897Z,76.46
2023-03-06T19:39:22.601Z,76.51
2023-03-06T19:41:50.015Z,77.19
2023-03-06T19:44:17.730Z,77.01
2023-03-06T19:46:55.605Z,77.16
2023-03-06T19:49:23.015Z,76.83
2023-03-06T19:51:50.290Z,76.78
2023-03-06T19:54:18.044Z,77.01
2023-03-06T19:56:45.397Z,76.94
2023-03-06T19:59:13.568Z,76.77
2023-03-06T20:01:40.920Z,76.54
2023-03-06T20:04:07.997Z,76.82
2023-03-06T20:06:36.647Z,76.89
2023-03-06T20:09:08.579Z,76.58
2023-03-06T20:11:35.963Z,76.51
2023-03-06T20:14:06.911Z,76.81
2023-03-06T20:16:34.990Z,76.38
2023-03-06T20:19:03.068Z,76.53
2023-03-06T20:21:37.700Z,76.16
2023-03-06T20:24:08.972Z,76.03
2023-03-06T20:26:38.023Z,76.52
2023-03-06T20:29:08.204Z,76.06
2023-03-06T20:31:36.492Z,75.62
2023-03-06T20:34:04.594Z,75.46
2023-03-06T20:36:40.449Z,75.33
2023-03-06T20:39:16.827Z,75.02
2023-03-06T20:41:46.933Z,74.60
2023-03-06T20:44:17.944Z,74.90
2023-03-06T20:46:45.386Z,74.67
2023-03-06T20:49:13.393Z,74.05
2023-03-06T20:51:42.237Z,73.88
2023-03-06T20:54:14.647Z,74.35
2023-03-06T20:56:47.346Z,74.53
2023-03-06T20:59:14.906Z,74.53
2023-03-06T21:01:50.844Z,74.32
2023-03-06T21:04:18.424Z,73.91
2023-03-06T21:06:47.101Z,73.37
2023-03-06T21:09:18.125Z,73.62
2023-03-06T21:11:48.604Z,73.50
2023-03-06T21:14:16.037Z,73.30
2023-03-06T21:16:43.598Z,73.03
2023-03-06T21:19:12.212Z,72.84
2023-03-06T21:21:39.128Z,72.70
2023-03-06T21:24:06.335Z,72.66
2023-03-06T21:26:34.151Z,71.75
2023-03-06T21:29:02.455Z,72.15
2023-03-06T21:31:31.302Z,72.30
2023-03-06T21:33:59.030Z,72.27
2023-03-06T21:36:27.142Z,72.12
2023-03-06T21:38:55.105Z,72.13
2023-03-06T21:41:30.491Z,72.00
2023-03-06T21:44:01.726Z,72.28
2023-03-06T21:46:33.545Z,72.07
2023-03-06T21:49:04.236Z,72.17
2023-03-06T21:51:31.734Z,72.12
2023-03-06T21:53:59.180Z,72.18
2023-03-06T21:56:28.551Z,72.13
2023-03-06T21:58:58.453Z,72.23
2023-03-06T22:01:28.826Z,71.99
2023-03-06T22:03:58.444Z,72.09
2023-03-06T22:06:29.776Z,72.25
2023-03-06T22:08:59.797Z,72.47
2023-03-06T22:11:31.469Z,72.16
2023-03-06T22:13:58.563Z,71.41
2023-03-06T22:16:25.459Z,71.54
2023-03-06T22:18:52.581Z,71.31
2023-03-06T22:21:22.418Z,71.49
2023-03-06T22:23:57.815Z,71.46
2023-03-06T22:26:28.033Z,71.27
2023-03-06T22:28:55.094Z,71.13
2023-03-06T22:31:26.287Z,71.11
2023-03-06T22:33:56.178Z,71.16
2023-03-06T22:36:24.138Z,71.15
2023-03-06T22:38:57.445Z,71.07
2023-03-06T22:41:26.838Z,71.24
2023-03-06T22:43:59.725Z,70.91
2023-03-06T22:46:27.860Z,71.23
2023-03-06T22:48:57.462Z,71.30
2023-03-06T22:51:25.606Z,71.53
2023-03-06T22:53:54.005Z,71.79
2023-03-06T22:56:22.728Z,71.72
2023-03-06T22:58:49.824Z,71.67
2023-03-06T23:01:21.424Z,71.72
2023-03-06T23:03:55.255Z,71.54
2023-03-06T23:06:29.397Z,71.50
2023-03-06T23:09:07.765Z,71.67
2023-03-06T23:11:35.124Z,71.53
2023-03-06T23:14:02.467Z,71.59
2023-03-06T23:16:29.698Z,71.76
2023-03-06T23:18:56.540Z,72.00
2023-03-06T23:21:24.883Z,72.17
2023-03-06T23:23:53.897Z,71.87
2023-03-06T23:26:27.581Z,71.95
2023-03-06T23:28:55.298Z,71.96
2023-03-06T23:31:29.434Z,71.89
2023-03-06T23:34:02.285Z,72.16
2023-03-06T23:36:30.184Z,72.25
2023-03-06T23:38:57.550Z,72.44
2023-03-06T23:41:24.974Z,72.02
2023-03-06T23:43:54.953Z,71.54
2023-03-06T23:46:22.501Z,71.35
2023-03-06T23:48:49.412Z,71.08
2023-03-06T23:51:22.278Z,70.94
2023-03-06T23:53:58.858Z,70.55
2023-03-06T23:56:28.452Z,70.00
2023-03-06T23:58:55.507Z,70.40
